Time;durP1;ratioP1;P1;durP2;ratioP2;P2;SDS_P1;SDS_P2;PMS_P1;PMS_P2;Temp;Humidity;BMP_temperature;BMP_pressure;BME280_temperature;BME280_humidity;BME280_pressure;Samples;Min_cycle;Max_cycle;Signal;HPM_P1;HPM_P2
2024/01/02 00:00:11;;;;;;;;;;;;;;;9.04;78.70;99650.63;4958730;28;19921;-71
2024/01/02 00:03:17;;;;;;;;;;;;;;;9.08;78.73;99646.91;4958679;28;19920;-71
2024/01/02 00:06:20;;;;;;;;;;;;;;;8.88;79.75;99647.28;4958644;28;19925;-70
2024/01/02 00:09:23;;;;;;;;;;;;;;;9.06;79.95;99630.53;4958589;28;19921;-71
2024/01/02 00:12:25;;;;;;;;;;;;;;;9.04;80.42;99629.78;4958419;28;20385;-71
2024/01/02 00:15:28;;;;;;;;;;;;;;;8.98;80.67;99627.53;4958466;28;19937;-71
2024/01/02 00:18:31;;;;;;;;;;;;;;;9.12;80.19;99613.66;4958210;28;20396;-71
2024/01/02 00:21:34;;;;;;;;;;;;;;;9.14;79.82;99610.97;4958080;28;19961;-70
2024/01/02 00:24:38;;;;;;;;;;;;;;;9.07;80.60;99598.31;4957210;28;20302;-70
2024/01/02 00:27:41;;;;;;;;;;;;;;;9.03;80.64;99593.34;4956576;28;19925;-70
2024/01/02 00:30:45;;;;;;;;;;;;;;;8.98;80.12;99585.81;4957275;28;19921;-70
2024/01/02 00:33:48;;;;;;;;;;;;;;;9.00;81.07;99578.75;4946558;29;19921;-70
2024/01/02 00:36:50;;;;;;;;;;;;;;;9.10;81.25;99572.97;4946118;28;19962;-70
2024/01/02 00:39:53;;;;;;;;;;;;;;;9.03;80.95;99569.88;4946097;28;19924;-70
2024/01/02 00:42:57;;;;;;;;;;;;;;;9.03;81.12;99560.31;4958247;28;20335;-70
2024/01/02 00:46:01;;;;;;;;;;;;;;;9.07;80.90;99555.75;4957855;28;19969;-70
2024/01/02 00:49:04;;;;;;;;;;;;;;;9.14;81.18;99545.78;4957895;28;19921;-70
2024/01/02 00:52:07;;;;;;;;;;;;;;;9.14;80.76;99541.38;4945865;28;19921;-70
2024/01/02 00:55:10;;;;;;;;;;;;;;;9.04;80.56;99530.69;4957766;28;19921;-70
2024/01/02 00:58:13;;;;;;;;;;;;;;;9.01;79.84;99520.44;4957772;28;19925;-70
2024/01/02 01:01:19;;;;;;;;;;;;;;;8.97;79.66;99516.38;4957697;28;19948;-70
2024/01/02 01:04:23;;;;;;;;;;;;;;;9.02;79.42;99505.63;4957891;28;19921;-70
2024/01/02 01:07:26;;;;;;;;;;;;;;;8.83;79.09;99503.31;4944616;28;19973;-70
2024/01/02 01:10:28;;;;;;;;;;;;;;;8.97;79.43;99495.50;4945608;28;19960;-70
2024/01/02 01:13:31;;;;;;;;;;;;;;;8.95;79.92;99486.09;4957544;28;19921;-70
2024/01/02 01:16:35;;;;;;;;;;;;;;;8.92;79.18;99470.66;4945543;28;20286;-70
2024/01/02 01:19:37;;;;;;;;;;;;;;;8.89;80.70;99466.44;4957164;28;19925;-70
2024/01/02 01:22:41;;;;;;;;;;;;;;;8.78;79.92;99468.91;4945399;28;19922;-70
2024/01/02 01:25:44;;;;;;;;;;;;;;;8.76;79.86;99461.16;4957521;28;20281;-70
2024/01/02 01:28:47;;;;;;;;;;;;;;;8.83;79.93;99453.78;4957169;28;20016;-70
2024/01/02 01:31:50;;;;;;;;;;;;;;;8.85;81.82;99454.56;4956387;28;19952;-70
2024/01/02 01:34:53;;;;;;;;;;;;;;;9.01;80.97;99450.06;4957127;28;19933;-70
2024/01/02 01:37:56;;;;;;;;;;;;;;;9.11;80.94;99445.09;4957065;28;20523;-70
2024/01/02 01:41:00;;;;;;;;;;;;;;;8.94;81.05;99437.50;4956965;28;20322;-70
2024/01/02 01:44:02;;;;;;;;;;;;;;;8.99;81.25;99428.44;4956963;28;20282;-70
2024/01/02 01:47:06;;;;;;;;;;;;;;;8.88;82.81;99423.06;4956691;28;19925;-70
2024/01/02 01:50:09;;;;;;;;;;;;;;;9.02;82.34;99414.38;4956803;28;19922;-70
2024/01/02 01:53:13;;;;;;;;;;;;;;;9.02;81.72;99404.78;4944891;29;19921;-70
2024/01/02 01:56:16;;;;;;;;;;;;;;;8.82;83.57;99398.22;4956671;28;19970;-70
2024/01/02 01:59:19;;;;;;;;;;;;;;;8.84;83.56;99395.53;4944801;28;19960;-70
2024/01/02 02:02:22;;;;;;;;;;;;;;;8.90;84.05;99387.31;4944741;28;20358;-70
2024/01/02 02:05:29;;;;;;;;;;;;;;;8.97;83.79;99375.56;4944656;28;19921;-70
2024/01/02 02:08:32;;;;;;;;;;;;;;;8.87;82.93;99371.03;4956285;29;19926;-70
2024/01/02 02:11:36;;;;;;;;;;;;;;;8.85;82.74;99353.72;4944345;29;19965;-70
2024/01/02 02:14:39;;;;;;;;;;;;;;;8.80;83.38;99341.91;4944811;29;19921;-70
2024/01/02 02:17:42;;;;;;;;;;;;;;;8.75;83.59;99337.00;4956330;29;19925;-70
2024/01/02 02:20:45;;;;;;;;;;;;;;;8.75;83.87;99325.75;4944033;29;19921;-70
2024/01/02 02:23:48;;;;;;;;;;;;;;;8.71;84.70;99312.09;4944622;29;20012;-70
2024/01/02 02:26:54;;;;;;;;;;;;;;;8.82;84.82;99303.56;4956062;29;20351;-70
2024/01/02 02:29:58;;;;;;;;;;;;;;;8.93;84.84;99292.44;4944272;29;19921;-70
2024/01/02 02:33:01;;;;;;;;;;;;;;;8.96;84.19;99285.25;4956078;29;19921;-70
2024/01/02 02:36:04;;;;;;;;;;;;;;;8.83;85.38;99277.38;4955905;29;19941;-70
2024/01/02 02:39:09;;;;;;;;;;;;;;;8.89;85.23;99264.91;4955842;29;20318;-70
2024/01/02 02:42:12;;;;;;;;;;;;;;;8.89;85.54;99257.91;4944199;29;20331;-70
2024/01/02 02:45:15;;;;;;;;;;;;;;;8.92;84.79;99252.50;4956147;29;19922;-70
2024/01/02 02:48:18;;;;;;;;;;;;;;;8.97;84.82;99245.22;4943805;29;19989;-70
2024/01/02 02:51:21;;;;;;;;;;;;;;;8.78;85.05;99247.38;4943757;29;20049;-70
2024/01/02 02:54:24;;;;;;;;;;;;;;;8.73;85.70;99231.19;4944086;29;19933;-70
2024/01/02 02:57:27;;;;;;;;;;;;;;;8.74;85.65;99223.28;4947412;29;19984;-70
2024/01/02 03:00:30;;;;;;;;;;;;;;;8.77;85.42;99211.78;4937905;29;19945;-70
2024/01/02 03:03:33;;;;;;;;;;;;;;;8.75;85.80;99204.09;4955470;29;19989;-70
2024/01/02 03:06:36;;;;;;;;;;;;;;;8.71;85.55;99186.13;4955416;29;19925;-70
2024/01/02 03:09:43;;;;;;;;;;;;;;;8.60;85.63;99173.81;4955416;29;19925;-70
2024/01/02 03:12:47;;;;;;;;;;;;;;;8.53;86.59;99162.13;4955424;29;20411;-70
2024/01/02 03:20:26;;;;;;;;;;;;;;;8.50;85.73;99131.91;4913690;29;20280;-70
2024/01/02 03:23:29;;;;;;;;;;;;;;;8.63;85.99;99115.47;4917133;29;19922;-70
2024/01/02 03:26:33;;;;;;;;;;;;;;;8.56;86.08;99100.25;4916991;29;20328;-70
2024/01/02 03:29:36;;;;;;;;;;;;;;;8.48;86.05;99092.09;4917337;29;19921;-70
2024/01/02 03:32:39;;;;;;;;;;;;;;;8.55;86.39;99076.88;4917086;29;20335;-70
2024/01/02 03:35:44;;;;;;;;;;;;;;;8.46;85.61;99075.75;4917082;29;19922;-70
2024/01/02 03:38:51;;;;;;;;;;;;;;;8.62;84.79;99062.53;4916998;29;19921;-70
2024/01/02 03:41:54;;;;;;;;;;;;;;;8.61;84.95;99058.22;4916879;29;20346;-70
2024/01/02 03:44:56;;;;;;;;;;;;;;;8.61;84.86;99053.88;4916910;29;20339;-70
2024/01/02 03:48:00;;;;;;;;;;;;;;;8.69;84.85;99042.94;4916952;29;20396;-70
2024/01/02 03:51:04;;;;;;;;;;;;;;;8.64;85.59;99029.38;4917186;29;20343;-70
2024/01/02 03:54:07;;;;;;;;;;;;;;;8.63;85.46;99021.66;4916840;29;20398;-70
2024/01/02 03:57:10;;;;;;;;;;;;;;;8.50;85.98;99022.50;4916965;29;20007;-70
2024/01/02 04:00:13;;;;;;;;;;;;;;;8.70;85.95;99007.28;4916916;29;19984;-70
2024/01/02 04:03:16;;;;;;;;;;;;;;;8.67;84.85;98991.84;4916790;29;19921;-70
2024/01/02 04:06:20;;;;;;;;;;;;;;;8.72;84.73;98988.00;4916798;29;19922;-70
2024/01/02 04:09:23;;;;;;;;;;;;;;;8.66;85.17;98969.34;4916677;29;19988;-70
2024/01/02 04:12:26;;;;;;;;;;;;;;;8.57;86.07;98956.00;4916752;29;19922;-70
2024/01/02 04:15:29;;;;;;;;;;;;;;;8.62;86.46;98950.50;4916993;29;19970;-70
2024/01/02 04:18:35;;;;;;;;;;;;;;;8.56;86.99;98938.72;4931881;29;19941;-70
2024/01/02 04:21:38;;;;;;;;;;;;;;;8.63;87.01;98933.09;4954787;29;19921;-70
2024/01/02 04:24:41;;;;;;;;;;;;;;;8.64;86.42;98924.31;4954655;29;19925;-70
2024/01/02 04:27:44;;;;;;;;;;;;;;;8.78;86.23;98911.16;4954706;29;19929;-70
2024/01/02 04:30:46;;;;;;;;;;;;;;;8.71;86.81;98895.13;4954969;29;19968;-70
2024/01/02 04:33:49;;;;;;;;;;;;;;;8.73;86.42;98874.16;4954585;29;19921;-70
2024/01/02 04:36:52;;;;;;;;;;;;;;;8.77;86.59;98875.59;4954938;29;19961;-70
2024/01/02 04:39:55;;;;;;;;;;;;;;;8.72;86.37;98868.13;4954844;29;19945;-69
2024/01/02 04:42:58;;;;;;;;;;;;;;;8.79;86.07;98861.53;4956626;28;19922;-70
2024/01/02 04:46:03;;;;;;;;;;;;;;;8.91;86.12;98859.81;4946214;29;19977;-69
2024/01/02 04:49:06;;;;;;;;;;;;;;;8.86;86.08;98846.28;4958180;29;20054;-69
2024/01/02 04:52:09;;;;;;;;;;;;;;;8.92;86.86;98830.19;4957853;29;20397;-69
2024/01/02 04:55:12;;;;;;;;;;;;;;;8.87;86.85;98827.13;4957748;29;19969;-70
2024/01/02 04:58:15;;;;;;;;;;;;;;;9.02;86.58;98817.31;4957754;29;19941;-70
2024/01/02 05:01:18;;;;;;;;;;;;;;;9.08;86.75;98820.31;4957748;29;19970;-70
2024/01/02 05:04:20;;;;;;;;;;;;;;;9.14;86.82;98808.59;4957643;29;19941;-69
2024/01/02 05:07:23;;;;;;;;;;;;;;;9.13;86.91;98793.09;4956407;29;19997;-69
2024/01/02 05:10:26;;;;;;;;;;;;;;;9.17;86.68;98799.72;4957392;29;19922;-70
2024/01/02 05:13:29;;;;;;;;;;;;;;;9.11;86.12;98787.16;4949510;29;19922;-70
2024/01/02 05:16:32;;;;;;;;;;;;;;;8.99;87.18;98789.69;4945539;29;19921;-69
2024/01/02 05:19:36;;;;;;;;;;;;;;;8.93;87.55;98802.34;4957125;29;19972;-69
2024/01/02 05:22:39;;;;;;;;;;;;;;;8.90;88.50;98779.94;4957370;29;19978;-69
2024/01/02 05:25:42;;;;;;;;;;;;;;;8.87;88.74;98784.56;4957268;29;19921;-69
2024/01/02 05:28:45;;;;;;;;;;;;;;;8.97;88.55;98786.41;4957459;29;19926;-69
2024/01/02 05:31:48;;;;;;;;;;;;;;;8.84;89.20;98768.22;4957096;29;20397;-69
2024/01/02 05:34:51;;;;;;;;;;;;;;;9.01;88.77;98766.97;4957127;29;19925;-69
2024/01/02 05:37:54;;;;;;;;;;;;;;;8.94;88.99;98760.56;4956931;29;20426;-70
2024/01/02 05:40:57;;;;;;;;;;;;;;;8.77;89.84;98738.31;4945043;29;20452;-70
2024/01/02 05:43:59;;;;;;;;;;;;;;;8.91;89.91;98749.53;4956079;29;19921;-70
2024/01/02 05:47:02;;;;;;;;;;;;;;;9.06;89.61;98753.56;4956926;29;19964;-70
2024/01/02 05:50:06;;;;;;;;;;;;;;;8.96;90.06;98755.22;4957174;29;20016;-70
2024/01/02 05:53:09;;;;;;;;;;;;;;;9.14;89.96;98755.63;4956671;28;20270;-70
2024/01/02 05:56:12;;;;;;;;;;;;;;;9.12;89.68;98773.16;4956639;29;19969;-70
2024/01/02 05:59:15;;;;;;;;;;;;;;;9.11;89.88;98761.06;4956640;29;20008;-70
2024/01/02 06:02:18;;;;;;;;;;;;;;;9.03;90.29;98757.28;4956674;29;19969;-70
2024/01/02 06:05:21;;;;;;;;;;;;;;;9.15;90.54;98752.06;4956803;29;19921;-70
2024/01/02 06:08:24;;;;;;;;;;;;;;;9.29;90.08;98754.50;4956459;29;20298;-69
2024/01/02 06:11:28;;;;;;;;;;;;;;;9.38;89.57;98763.38;4956370;29;19922;-70
2024/01/02 06:14:31;;;;;;;;;;;;;;;9.47;89.59;98763.50;4956698;29;19922;-70
2024/01/02 06:17:34;;;;;;;;;;;;;;;9.42;89.85;98778.69;4956409;29;19945;-70
2024/01/02 06:20:36;;;;;;;;;;;;;;;9.51;89.25;98775.41;4956204;29;19926;-70
2024/01/02 06:23:39;;;;;;;;;;;;;;;9.54;89.19;98769.94;4952341;29;19921;-70
2024/01/02 06:26:43;;;;;;;;;;;;;;;9.61;88.92;98766.88;4937479;29;20326;-69
2024/01/02 06:29:45;;;;;;;;;;;;;;;9.50;89.88;98758.06;4956223;29;19973;-69
2024/01/02 06:32:48;;;;;;;;;;;;;;;9.64;89.11;98753.59;4956127;29;19922;-69
2024/01/02 06:35:52;;;;;;;;;;;;;;;9.63;89.76;98752.75;4955974;29;19964;-70
2024/01/02 06:38:55;;;;;;;;;;;;;;;9.65;89.25;98755.25;4955833;29;20009;-70
2024/01/02 06:41:58;;;;;;;;;;;;;;;9.68;89.32;98744.56;4954797;29;19922;-71
2024/01/02 06:45:01;;;;;;;;;;;;;;;9.73;88.88;98747.66;4945839;29;20390;-70
2024/01/02 06:48:05;;;;;;;;;;;;;;;9.81;88.74;98760.94;4954959;29;19925;-70
2024/01/02 06:51:08;;;;;;;;;;;;;;;9.72;88.67;98751.22;4955620;29;20290;-69
2024/01/02 06:54:11;;;;;;;;;;;;;;;9.79;89.10;98760.22;4955590;29;19921;-70
2024/01/02 06:57:15;;;;;;;;;;;;;;;9.64;89.55;98762.25;4955891;29;19924;-71
2024/01/02 07:00:18;;;;;;;;;;;;;;;9.68;89.95;98757.63;4955642;29;20385;-72
2024/01/02 07:03:21;;;;;;;;;;;;;;;9.76;89.75;98757.84;4947545;29;20286;-71
2024/01/02 07:06:25;;;;;;;;;;;;;;;9.83;89.84;98773.88;4942897;29;19920;-76
2024/01/02 07:09:29;;;;;;;;;;;;;;;9.82;89.87;98762.59;4955221;29;20326;-69
2024/01/02 07:12:33;;;;;;;;;;;;;;;9.87;90.14;98759.66;4947159;29;19921;-72
2024/01/02 07:15:37;;;;;;;;;;;;;;;9.71;90.78;98768.66;4946246;29;20334;-67
2024/01/02 07:18:40;;;;;;;;;;;;;;;9.68;93.83;98768.91;4955084;29;20343;-65
2024/01/02 07:21:44;;;;;;;;;;;;;;;9.80;93.45;98769.75;4936189;29;19921;-74
2024/01/02 07:24:47;;;;;;;;;;;;;;;9.94;91.24;98771.28;4936047;29;19978;-75
2024/01/02 07:27:52;;;;;;;;;;;;;;;9.89;91.53;98778.63;4936047;29;20389;-71
2024/01/02 07:30:55;;;;;;;;;;;;;;;9.83;91.68;98776.47;4939801;29;20402;-71
2024/01/02 07:34:00;;;;;;;;;;;;;;;9.89;91.40;98768.19;4927908;29;19922;-71
2024/01/02 07:37:03;;;;;;;;;;;;;;;9.94;91.12;98773.88;4939255;29;20388;-72
2024/01/02 07:40:07;;;;;;;;;;;;;;;9.94;91.58;98773.88;4924421;29;19962;-72
2024/01/02 07:43:10;;;;;;;;;;;;;;;9.99;91.47;98787.44;4938574;29;20349;-72
2024/01/02 07:46:15;;;;;;;;;;;;;;;10.00;90.93;98779.47;4945830;29;19926;-72
2024/01/02 07:49:23;;;;;;;;;;;;;;;10.01;90.85;98783.72;4946257;29;20317;-72
2024/01/02 07:52:26;;;;;;;;;;;;;;;10.12;90.24;98784.69;4948631;29;19922;-72
2024/01/02 07:55:30;;;;;;;;;;;;;;;10.10;90.20;98797.03;4946972;29;20009;-73
2024/01/02 07:58:35;;;;;;;;;;;;;;;10.10;89.99;98787.41;4940432;29;19922;-71
2024/01/02 08:01:39;;;;;;;;;;;;;;;10.20;89.88;98797.97;4938984;29;19921;-70
2024/01/02 08:04:42;;;;;;;;;;;;;;;10.15;89.78;98792.28;4940741;29;20328;-69
2024/01/02 08:07:46;;;;;;;;;;;;;;;10.24;89.46;98796.75;4938439;29;19989;-71
2024/01/02 08:10:50;;;;;;;;;;;;;;;10.20;89.03;98803.19;4941030;29;20331;-71
2024/01/02 08:13:53;;;;;;;;;;;;;;;10.20;88.99;98792.75;4941977;29;19925;-70
2024/01/02 08:16:57;;;;;;;;;;;;;;;10.36;88.38;98798.44;4934740;29;19937;-71
2024/01/02 08:20:00;;;;;;;;;;;;;;;10.39;88.22;98806.03;4944154;29;20441;-71
2024/01/02 08:23:05;;;;;;;;;;;;;;;10.36;87.94;98814.13;4937986;29;20026;-71
2024/01/02 08:26:15;;;;;;;;;;;;;;;10.24;88.52;98810.69;4936974;29;19925;-72
2024/01/02 08:29:18;;;;;;;;;;;;;;;10.34;88.21;98800.38;4937639;29;19981;-73
2024/01/02 08:32:22;;;;;;;;;;;;;;;10.34;87.81;98795.16;4939336;29;20013;-73
2024/01/02 08:35:26;;;;;;;;;;;;;;;10.40;87.32;98809.47;4947921;29;19921;-72
2024/01/02 08:38:32;;;;;;;;;;;;;;;10.49;87.04;98814.00;4954250;29;19970;-73
2024/01/02 08:41:37;;;;;;;;;;;;;;;10.56;86.39;98814.34;4942495;29;19969;-74
2024/01/02 08:44:40;;;;;;;;;;;;;;;10.63;86.14;98815.53;4941267;29;19921;-73
2024/01/02 08:47:43;;;;;;;;;;;;;;;10.58;86.64;98809.81;4950098;29;19974;-73
2024/01/02 08:50:47;;;;;;;;;;;;;;;10.65;86.13;98824.06;4948183;29;20428;-72
2024/01/02 08:53:51;;;;;;;;;;;;;;;10.69;85.65;98825.50;4954411;29;19924;-72
2024/01/02 08:56:55;;;;;;;;;;;;;;;10.52;85.93;98828.59;4950522;29;19968;-72
2024/01/02 08:59:59;;;;;;;;;;;;;;;10.66;85.64;98826.56;4952641;29;19964;-71
2024/01/02 09:03:02;;;;;;;;;;;;;;;10.71;85.17;98826.19;4953608;29;19925;-76
2024/01/02 09:06:07;;;;;;;;;;;;;;;10.89;86.35;98837.78;4947379;29;19925;-69
2024/01/02 09:09:10;;;;;;;;;;;;;;;10.85;84.62;98833.78;4947610;29;19926;-75
2024/01/02 09:12:15;;;;;;;;;;;;;;;10.79;84.34;98844.72;4934595;29;20434;-71
2024/01/02 09:15:18;;;;;;;;;;;;;;;10.84;84.34;98845.16;4945494;29;19922;-71
2024/01/02 09:18:21;;;;;;;;;;;;;;;10.82;84.37;98841.84;4955199;29;19944;-71
2024/01/02 09:21:25;;;;;;;;;;;;;;;10.90;84.09;98843.84;4946130;29;19939;-72
2024/01/02 09:24:28;;;;;;;;;;;;;;;10.92;83.63;98842.78;4946223;29;20456;-71
2024/01/02 09:27:32;;;;;;;;;;;;;;;11.08;83.58;98844.97;4944452;29;19952;-70
2024/01/02 09:30:36;;;;;;;;;;;;;;;11.02;83.15;98850.72;4953540;29;19921;-70
2024/01/02 09:33:39;;;;;;;;;;;;;;;11.02;82.68;98842.03;4955745;29;19965;-71
2024/01/02 09:36:42;;;;;;;;;;;;;;;11.14;82.81;98851.50;4954487;29;20001;-70
2024/01/02 09:39:47;;;;;;;;;;;;;;;11.07;82.67;98855.56;4951725;29;20096;-71
2024/01/02 09:42:58;;;;;;;;;;;;;;;10.99;82.77;98856.19;4955297;29;19972;-72
2024/01/02 09:46:04;;;;;;;;;;;;;;;10.88;83.13;98861.44;4937027;29;20294;-69
2024/01/02 09:49:23;;;;;;;;;;;;;;;11.00;82.89;98852.59;4937122;29;20427;-71
2024/01/02 09:52:34;;;;;;;;;;;;;;;10.85;83.21;98872.16;4936356;29;20006;-69
2024/01/02 09:55:46;;;;;;;;;;;;;;;11.01;83.08;98866.50;4937706;29;20411;-68
2024/01/02 09:59:09;;;;;;;;;;;;;;;11.07;82.70;98858.16;4944924;29;19961;-77
2024/01/02 10:02:22;;;;;;;;;;;;;;;11.05;82.78;98860.09;4936149;29;19925;-69
2024/01/02 10:05:35;;;;;;;;;;;;;;;11.09;82.43;98851.88;4942861;29;19969;-68
2024/01/02 10:08:39;;;;;;;;;;;;;;;11.12;81.92;98854.22;4941986;29;19925;-72
2024/01/02 10:11:58;;;;;;;;;;;;;;;11.05;82.29;98853.06;4938754;29;20328;-73
2024/01/02 10:15:31;;;;;;;;;;;;;;;11.26;81.74;98854.88;4950643;29;20381;-72
2024/01/02 10:19:42;;;;;;;;;;;;;;;11.34;81.12;98836.78;4902922;29;20058;-70
2024/01/02 10:23:01;;;;;;;;;;;;;;;11.38;80.47;98830.34;4916287;29;19969;-69
2024/01/02 10:26:07;;;;;;;;;;;;;;;11.21;81.14;98842.19;4916769;29;20055;-72
2024/01/02 10:29:17;;;;;;;;;;;;;;;11.18;81.44;98832.81;4916867;29;19973;-72
2024/01/02 10:32:27;;;;;;;;;;;;;;;11.28;81.31;98832.88;4917083;29;20321;-72
2024/01/02 10:35:35;;;;;;;;;;;;;;;11.13;81.10;98818.44;4916601;29;19922;-72
2024/01/02 10:39:02;;;;;;;;;;;;;;;11.10;81.60;98818.69;4915488;29;19957;-72
2024/01/02 10:42:12;;;;;;;;;;;;;;;10.83;82.69;98817.38;4915001;29;19950;-72
2024/01/02 10:45:20;;;;;;;;;;;;;;;10.84;82.78;98812.97;4920625;29;20453;-72
2024/01/02 10:48:55;;;;;;;;;;;;;;;10.88;82.95;98804.75;4935003;29;19925;-73
2024/01/02 10:52:06;;;;;;;;;;;;;;;10.88;82.87;98807.38;4935556;29;20346;-72
2024/01/02 10:55:30;;;;;;;;;;;;;;;10.96;82.90;98795.47;4935552;29;20009;-72
2024/01/02 10:58:40;;;;;;;;;;;;;;;10.92;82.43;98800.09;4935171;29;20017;-72
2024/01/02 11:01:46;;;;;;;;;;;;;;;11.00;82.77;98802.09;4933867;29;20263;-72
2024/01/02 11:05:00;;;;;;;;;;;;;;;11.00;82.87;98800.31;4933480;29;19921;-73
2024/01/02 11:08:11;;;;;;;;;;;;;;;11.10;82.87;98795.16;4918093;29;20005;-72
2024/01/02 11:11:15;;;;;;;;;;;;;;;11.00;82.67;98797.69;4917587;29;20278;-71
2024/01/02 11:14:19;;;;;;;;;;;;;;;11.07;82.18;98798.00;4925041;29;19956;-72
2024/01/02 11:17:23;;;;;;;;;;;;;;;10.98;82.40;98789.16;4926897;29;19933;-72
2024/01/02 11:20:32;;;;;;;;;;;;;;;10.84;82.54;98782.41;4946980;29;19925;-72
2024/01/02 11:23:40;;;;;;;;;;;;;;;10.99;82.45;98784.75;4949922;29;19953;-74
2024/01/02 11:26:45;;;;;;;;;;;;;;;10.94;82.25;98778.13;4945492;29;19969;-70
2024/01/02 11:30:02;;;;;;;;;;;;;;;10.89;82.29;98767.19;4948101;29;19930;-72
2024/01/02 11:33:16;;;;;;;;;;;;;;;11.00;81.82;98765.47;4945870;29;19933;-70
2024/01/02 11:36:40;;;;;;;;;;;;;;;11.17;81.49;98772.78;4948873;29;19921;-72
2024/01/02 11:39:53;;;;;;;;;;;;;;;11.03;81.99;98749.53;4950172;29;19922;-71
2024/01/02 11:43:06;;;;;;;;;;;;;;;11.11;81.83;98754.97;4946848;29;19948;-72
2024/01/02 11:46:11;;;;;;;;;;;;;;;11.19;81.59;98744.69;4944622;29;19922;-69
2024/01/02 11:49:17;;;;;;;;;;;;;;;11.27;82.16;98739.66;4944538;29;19977;-70
2024/01/02 11:52:32;;;;;;;;;;;;;;;11.21;82.84;98734.94;4939308;29;20054;-71
2024/01/02 11:55:36;;;;;;;;;;;;;;;11.03;83.03;98734.66;4943728;29;19921;-71
2024/01/02 12:02:42;;;;;;;;;;;;;;;10.78;85.39;98725.38;4935217;29;20444;-71
2024/01/02 12:09:41;;;;;;;;;;;;;;;11.04;85.28;98715.41;4947853;29;20009;-71
2024/01/02 12:12:58;;;;;;;;;;;;;;;11.00;85.43;98703.53;4951687;29;20386;-71
2024/01/02 12:16:21;;;;;;;;;;;;;;;10.85;85.80;98697.81;4942737;29;19921;-71
2024/01/02 12:19:30;;;;;;;;;;;;;;;10.76;86.43;98688.09;4945418;29;19929;-70
2024/01/02 12:22:34;;;;;;;;;;;;;;;10.78;86.64;98682.72;4945815;29;20298;-70
2024/01/02 12:25:39;;;;;;;;;;;;;;;10.70;86.94;98672.91;4954804;29;19961;-70
2024/01/02 12:28:43;;;;;;;;;;;;;;;10.75;86.78;98667.31;4943801;29;19973;-72
2024/01/02 12:31:53;;;;;;;;;;;;;;;10.82;86.98;98658.84;4950304;29;20381;-69
2024/01/02 12:35:07;;;;;;;;;;;;;;;10.93;86.62;98656.16;4940825;29;19921;-70
2024/01/02 12:38:11;;;;;;;;;;;;;;;10.87;86.39;98650.59;4949106;29;20374;-69
2024/01/02 12:41:17;;;;;;;;;;;;;;;10.92;86.08;98640.59;4938133;29;19921;-69
2024/01/02 12:44:22;;;;;;;;;;;;;;;10.96;85.75;98641.16;4954176;29;19921;-70
2024/01/02 12:47:29;;;;;;;;;;;;;;;11.05;85.99;98632.56;4949212;29;20009;-69
2024/01/02 12:50:36;;;;;;;;;;;;;;;11.06;85.83;98627.19;4947121;29;20010;-69
2024/01/02 12:53:40;;;;;;;;;;;;;;;11.09;85.78;98633.94;4948723;29;19921;-69
2024/01/02 12:56:50;;;;;;;;;;;;;;;10.92;85.63;98624.91;4948505;29;20040;-69
2024/01/02 12:59:54;;;;;;;;;;;;;;;10.90;85.87;98618.97;4949011;29;19922;-70
2024/01/02 13:02:58;;;;;;;;;;;;;;;10.86;86.32;98623.63;4948191;28;19960;-70
2024/01/02 13:06:01;;;;;;;;;;;;;;;10.76;86.60;98630.59;4947709;29;19963;-70
2024/01/02 13:09:05;;;;;;;;;;;;;;;10.52;86.44;98617.75;4945013;29;20029;-71
2024/01/02 13:12:10;;;;;;;;;;;;;;;10.63;86.83;98611.66;4937481;29;20386;-70
2024/01/02 13:15:15;;;;;;;;;;;;;;;10.60;86.77;98607.50;4937932;29;19937;-69
2024/01/02 13:18:19;;;;;;;;;;;;;;;10.69;87.15;98608.53;4938181;29;19940;-70
2024/01/02 13:21:23;;;;;;;;;;;;;;;10.76;87.33;98607.06;4939258;29;19926;-69
2024/01/02 13:24:43;;;;;;;;;;;;;;;10.65;86.60;98601.88;4947659;29;19970;-68
2024/01/02 13:27:46;;;;;;;;;;;;;;;10.71;86.27;98601.38;4947806;29;19941;-67
2024/01/02 13:30:51;;;;;;;;;;;;;;;10.72;87.31;98600.44;4947560;29;19921;-68
2024/01/02 13:34:03;;;;;;;;;;;;;;;10.72;86.91;98595.22;4945542;29;19921;-68
2024/01/02 13:37:17;;;;;;;;;;;;;;;10.52;87.15;98589.00;4937670;29;19979;-69
2024/01/02 13:40:23;;;;;;;;;;;;;;;10.42;87.05;98578.50;4926274;29;19921;-69
2024/01/02 13:43:27;;;;;;;;;;;;;;;10.57;87.37;98579.03;4925549;29;19921;-78
2024/01/02 13:46:30;;;;;;;;;;;;;;;10.55;87.88;98572.25;4937054;29;19921;-76
2024/01/02 13:49:50;;;;;;;;;;;;;;;10.56;87.81;98574.75;4937487;29;19964;-69
2024/01/02 13:53:06;;;;;;;;;;;;;;;10.68;88.06;98570.28;4937404;29;19926;-71
2024/01/02 13:56:09;;;;;;;;;;;;;;;10.60;88.51;98567.50;4937460;29;19922;-70
2024/01/02 13:59:13;;;;;;;;;;;;;;;10.67;88.51;98555.56;4936332;29;19921;-69
2024/01/02 14:02:17;;;;;;;;;;;;;;;10.69;88.13;98557.09;4936048;29;20398;-70
2024/01/02 14:05:22;;;;;;;;;;;;;;;10.73;89.03;98555.03;4924148;29;20286;-70
2024/01/02 14:08:25;;;;;;;;;;;;;;;10.71;88.64;98546.50;4924511;29;19973;-70
2024/01/02 14:11:28;;;;;;;;;;;;;;;10.55;88.80;98546.13;4934907;29;20394;-71
2024/01/02 14:14:52;;;;;;;;;;;;;;;10.58;88.80;98543.25;4935920;29;19974;-70
2024/01/02 14:17:55;;;;;;;;;;;;;;;10.60;88.88;98538.75;4936756;29;20302;-72
2024/01/02 14:21:20;;;;;;;;;;;;;;;10.56;88.50;98548.63;4936698;29;20026;-70
2024/01/02 14:24:29;;;;;;;;;;;;;;;10.65;88.98;98531.31;4936921;29;19922;-69
2024/01/02 14:27:44;;;;;;;;;;;;;;;10.66;89.24;98527.78;4936592;29;19926;-69
2024/01/02 14:31:00;;;;;;;;;;;;;;;10.75;89.32;98526.97;4936935;29;19942;-69
2024/01/02 14:34:07;;;;;;;;;;;;;;;10.79;88.90;98507.47;4936681;29;19966;-69
2024/01/02 14:37:39;;;;;;;;;;;;;;;10.75;89.21;98511.28;4925288;29;20359;-70
2024/01/02 14:41:02;;;;;;;;;;;;;;;10.76;88.84;98501.69;4937111;29;20278;-69
2024/01/02 14:44:21;;;;;;;;;;;;;;;10.75;88.69;98494.78;4936746;29;19943;-69
2024/01/02 14:47:28;;;;;;;;;;;;;;;10.61;89.56;98488.13;4936559;29;19981;-69
2024/01/02 14:50:41;;;;;;;;;;;;;;;10.69;89.69;98488.31;4934818;29;20291;-69
2024/01/02 14:54:05;;;;;;;;;;;;;;;10.77;89.06;98475.41;4935670;29;20066;-69
2024/01/02 14:57:08;;;;;;;;;;;;;;;10.72;89.52;98467.13;4936405;29;19969;-69
2024/01/02 15:00:19;;;;;;;;;;;;;;;10.76;89.42;98459.84;4935686;29;19921;-69
2024/01/02 15:03:43;;;;;;;;;;;;;;;10.82;88.74;98460.16;4936458;29;19920;-69
2024/01/02 15:06:50;;;;;;;;;;;;;;;10.88;88.80;98446.56;4936299;29;19970;-69
2024/01/02 15:10:08;;;;;;;;;;;;;;;10.88;89.03;98443.94;4935929;29;20049;-69
2024/01/02 15:13:23;;;;;;;;;;;;;;;10.85;89.70;98438.97;4924396;29;19938;-70
2024/01/02 15:16:35;;;;;;;;;;;;;;;10.77;89.67;98433.56;4934631;29;20005;-69
2024/01/02 15:19:57;;;;;;;;;;;;;;;10.74;89.49;98433.00;4923910;29;19969;-69
2024/01/02 15:23:11;;;;;;;;;;;;;;;10.57;90.12;98419.59;4935998;29;19978;-69
2024/01/02 15:26:21;;;;;;;;;;;;;;;10.65;90.33;98408.47;4935420;29;20318;-69
2024/01/02 15:29:25;;;;;;;;;;;;;;;10.73;89.82;98403.44;4936266;29;19972;-69
2024/01/02 15:32:33;;;;;;;;;;;;;;;10.63;90.42;98392.94;4935907;29;20338;-70
2024/01/02 15:35:40;;;;;;;;;;;;;;;10.53;90.20;98404.31;4936062;29;19980;-69
2024/01/02 15:39:02;;;;;;;;;;;;;;;10.63;90.38;98394.75;4935545;29;19925;-70
2024/01/02 15:42:11;;;;;;;;;;;;;;;10.45;90.24;98384.91;4936020;29;19921;-69
2024/01/02 15:45:18;;;;;;;;;;;;;;;10.55;90.48;98377.09;4935907;29;19965;-69
2024/01/02 15:48:48;;;;;;;;;;;;;;;10.52;90.93;98373.91;4935998;29;20029;-69
2024/01/02 15:51:59;;;;;;;;;;;;;;;10.58;90.36;98378.63;4935858;29;19921;-67
2024/01/02 15:55:12;;;;;;;;;;;;;;;10.38;91.23;98362.88;4935887;29;19936;-68
2024/01/02 15:58:23;;;;;;;;;;;;;;;10.32;91.21;98358.19;4935967;29;19985;-67
2024/01/02 16:01:32;;;;;;;;;;;;;;;10.46;91.07;98356.97;4935878;29;20009;-68
2024/01/02 16:04:54;;;;;;;;;;;;;;;10.45;90.78;98364.00;4935880;29;19922;-68
2024/01/02 16:08:01;;;;;;;;;;;;;;;10.44;90.82;98346.69;4935771;29;19925;-67
2024/01/02 16:11:09;;;;;;;;;;;;;;;10.37;90.79;98347.31;4935805;29;19922;-68
2024/01/02 16:14:24;;;;;;;;;;;;;;;10.35;91.56;98341.41;4935730;29;19922;-69
2024/01/02 16:17:42;;;;;;;;;;;;;;;10.18;91.72;98325.38;4935705;29;19922;-68
2024/01/02 16:20:47;;;;;;;;;;;;;;;10.22;93.60;98325.94;4924156;29;19925;-75
2024/01/02 16:24:02;;;;;;;;;;;;;;;10.41;92.98;98310.38;4935532;29;20339;-75
2024/01/02 16:27:11;;;;;;;;;;;;;;;10.42;92.15;98296.34;4935524;29;20303;-67
2024/01/02 16:30:37;;;;;;;;;;;;;;;10.37;91.36;98288.09;4935532;29;19930;-67